Time;durP1;ratioP1;P1;durP2;ratioP2;P2;SDS_P1;SDS_P2;PMS_P1;PMS_P2;Temp;Humidity;BMP_temperature;BMP_pressure;BME280_temperature;BME280_humidity;BME280_pressure;Samples;Min_cycle;Max_cycle;Signal;HPM_P1;HPM_P2
2023/08/06 00:00:09;;;;;;;2.92;2.58;;;18.60;99.90;;;;;;7389899;19;20146;-74
2023/08/06 00:02:35;;;;;;;4.32;2.42;;;18.60;99.90;;;;;;7390978;19;20134;-74
2023/08/06 00:05:02;;;;;;;2.60;2.33;;;18.60;99.90;;;;;;7389561;19;20142;-76
2023/08/06 00:07:28;;;;;;;2.83;2.40;;;18.70;99.90;;;;;;7391556;19;20165;-74
2023/08/06 00:09:54;;;;;;;3.63;2.53;;;18.60;99.90;;;;;;7390362;19;20134;-74
2023/08/06 00:12:20;;;;;;;3.03;2.55;;;18.60;99.90;;;;;;7391307;19;20139;-74
2023/08/06 00:14:49;;;;;;;3.10;2.50;;;18.60;99.90;;;;;;7390254;19;20181;-74
2023/08/06 00:17:15;;;;;;;4.47;2.67;;;18.00;99.90;;;;;;7388326;19;20210;-74
2023/08/06 00:19:40;;;;;;;4.10;2.40;;;17.90;99.90;;;;;;7392158;19;20155;-74
2023/08/06 00:22:06;;;;;;;3.72;2.72;;;17.80;99.90;;;;;;7390054;19;20139;-73
2023/08/06 00:24:32;;;;;;;3.28;2.88;;;17.60;99.90;;;;;;7392680;19;20587;-75
2023/08/06 00:26:58;;;;;;;3.67;2.38;;;17.60;99.90;;;;;;7389661;19;20573;-74
2023/08/06 00:29:24;;;;;;;2.85;2.33;;;17.70;99.90;;;;;;7387896;19;20147;-73
2023/08/06 00:31:49;;;;;;;3.75;2.55;;;17.70;99.90;;;;;;7391958;19;20198;-74
2023/08/06 00:34:15;;;;;;;2.53;2.33;;;17.80;99.90;;;;;;7392219;19;20134;-73
2023/08/06 00:36:41;;;;;;;2.53;2.33;;;18.20;99.90;;;;;;7385374;19;20138;-73
2023/08/06 00:39:07;;;;;;;2.63;2.25;;;18.10;99.90;;;;;;7388746;19;20146;-73
2023/08/06 00:41:33;;;;;;;4.25;2.55;;;18.10;99.90;;;;;;7390234;19;20130;-74
2023/08/06 00:43:58;;;;;;;2.42;2.22;;;18.10;99.90;;;;;;7389609;19;20130;-73
2023/08/06 00:46:24;;;;;;;2.38;2.00;;;18.00;99.90;;;;;;7390117;19;20153;-73
2023/08/06 00:48:51;;;;;;;3.65;2.45;;;17.80;99.90;;;;;;7388524;19;20584;-74
2023/08/06 00:51:16;;;;;;;3.65;2.40;;;17.60;99.90;;;;;;7388824;19;20158;-74
2023/08/06 00:53:43;;;;;;;2.97;2.35;;;17.90;99.90;;;;;;7391516;19;20143;-74
2023/08/06 00:56:09;;;;;;;3.28;2.20;;;17.60;99.90;;;;;;7388698;19;20146;-73
2023/08/06 00:58:36;;;;;;;3.10;2.60;;;17.80;99.90;;;;;;7386332;19;20163;-75
2023/08/06 01:01:02;;;;;;;2.45;1.83;;;17.80;99.90;;;;;;7389616;19;20134;-74
2023/08/06 01:03:28;;;;;;;3.38;1.92;;;17.40;99.90;;;;;;7388494;19;20242;-73
2023/08/06 01:05:54;;;;;;;2.90;1.98;;;17.20;99.90;;;;;;7385576;19;20143;-74
2023/08/06 01:08:29;;;;;;;3.47;2.30;;;17.50;99.90;;;;;;7387623;19;20640;-75
2023/08/06 01:11:13;;;;;;;2.15;1.95;;;17.40;99.90;;;;;;7387981;19;20134;-74
2023/08/06 01:13:47;;;;;;;2.30;2.00;;;17.50;99.90;;;;;;7391748;19;20617;-73
2023/08/06 01:16:17;;;;;;;5.25;2.10;;;17.40;99.90;;;;;;7389703;19;20150;-74
2023/08/06 01:18:46;;;;;;;3.75;1.90;;;17.60;99.90;;;;;;7388962;19;20147;-74
2023/08/06 01:21:13;;;;;;;2.55;1.63;;;17.70;99.90;;;;;;7387731;19;20151;-73
2023/08/06 01:23:39;;;;;;;2.78;1.80;;;17.80;99.90;;;;;;7390619;19;20166;-74
2023/08/06 01:26:17;;;;;;;2.47;1.50;;;17.90;99.90;;;;;;7387438;19;20162;-74
2023/08/06 01:29:01;;;;;;;3.03;1.80;;;18.00;99.90;;;;;;7390662;19;20137;-74
2023/08/06 01:31:31;;;;;;;1.58;1.48;;;17.90;99.90;;;;;;7386930;19;20135;-73
2023/08/06 01:33:59;;;;;;;1.95;1.58;;;17.90;99.90;;;;;;7387161;19;20143;-74
2023/08/06 01:36:25;;;;;;;2.47;1.70;;;18.00;99.90;;;;;;7388769;19;20181;-73
2023/08/06 01:39:00;;;;;;;2.40;1.67;;;17.90;99.90;;;;;;7388640;19;20131;-73
2023/08/06 01:41:25;;;;;;;2.70;1.83;;;18.00;99.90;;;;;;7395460;19;20126;-74
2023/08/06 01:43:51;;;;;;;1.90;1.55;;;18.00;99.90;;;;;;7393646;19;20579;-73
2023/08/06 01:46:17;;;;;;;2.47;1.60;;;17.90;99.90;;;;;;7394400;19;20135;-75
2023/08/06 01:48:43;;;;;;;2.00;1.60;;;18.00;99.90;;;;;;7393601;19;20131;-72
2023/08/06 01:51:09;;;;;;;1.67;1.58;;;17.90;99.90;;;;;;7395748;19;20504;-75
2023/08/06 01:53:34;;;;;;;1.83;1.60;;;17.90;99.90;;;;;;7394148;19;20134;-75
2023/08/06 01:56:00;;;;;;;1.80;1.60;;;17.90;99.90;;;;;;7395158;19;20131;-75
2023/08/06 01:58:26;;;;;;;1.88;1.67;;;17.90;99.90;;;;;;7390202;19;20157;-74
2023/08/06 02:00:52;;;;;;;1.70;1.60;;;18.00;99.90;;;;;;7393820;19;20246;-74
2023/08/06 02:03:20;;;;;;;1.70;1.45;;;18.00;99.90;;;;;;7394835;19;20146;-75
2023/08/06 02:05:46;;;;;;;2.00;1.77;;;18.10;99.90;;;;;;7393341;19;20130;-74
2023/08/06 02:08:12;;;;;;;1.90;1.42;;;18.10;99.90;;;;;;7392155;19;20513;-74
2023/08/06 02:10:37;;;;;;;2.30;1.67;;;18.00;99.90;;;;;;7394486;19;20142;-74
2023/08/06 02:13:03;;;;;;;3.35;1.35;;;18.00;99.90;;;;;;7395715;19;20626;-74
2023/08/06 02:15:29;;;;;;;2.83;1.50;;;18.00;99.90;;;;;;7394658;19;20138;-75
2023/08/06 02:17:55;;;;;;;1.90;1.60;;;18.00;99.90;;;;;;7392414;19;20138;-73
2023/08/06 02:20:21;;;;;;;3.42;1.60;;;17.90;99.90;;;;;;7394348;19;20586;-74
2023/08/06 02:22:47;;;;;;;1.73;1.45;;;17.90;99.90;;;;;;7393875;19;20138;-73
2023/08/06 02:25:12;;;;;;;2.88;1.42;;;17.90;99.90;;;;;;7395189;19;20139;-73
2023/08/06 02:27:38;;;;;;;2.78;1.65;;;17.20;99.90;;;;;;7395932;19;20139;-73
2023/08/06 02:30:05;;;;;;;1.42;1.33;;;16.90;99.90;;;;;;7391061;19;20142;-76
2023/08/06 02:32:32;;;;;;;3.13;1.58;;;16.90;99.90;;;;;;7393458;19;20142;-74
2023/08/06 02:34:58;;;;;;;2.88;1.83;;;16.70;99.90;;;;;;7393921;19;20542;-73
2023/08/06 02:37:23;;;;;;;2.28;1.60;;;16.70;99.90;;;;;;7391461;19;20138;-74
2023/08/06 02:39:49;;;;;;;2.60;1.58;;;16.90;99.90;;;;;;7392105;19;20207;-76
2023/08/06 02:42:15;;;;;;;2.60;1.58;;;17.20;99.90;;;;;;7392445;19;20129;-73
2023/08/06 02:44:40;;;;;;;1.63;1.30;;;17.00;99.90;;;;;;7392589;19;20169;-73
2023/08/06 02:47:06;;;;;;;4.53;1.60;;;17.10;99.90;;;;;;7391497;19;20127;-74
2023/08/06 02:49:32;;;;;;;1.70;1.42;;;17.10;99.90;;;;;;7393364;19;20166;-74
2023/08/06 02:51:57;;;;;;;3.72;1.40;;;17.10;99.90;;;;;;7390416;19;20480;-74
2023/08/06 02:54:25;;;;;;;1.58;1.48;;;17.00;99.90;;;;;;7390483;19;20226;-73
2023/08/06 02:56:51;;;;;;;3.17;1.52;;;17.10;99.90;;;;;;7393323;19;20139;-73
2023/08/06 02:59:17;;;;;;;2.90;1.58;;;17.10;99.90;;;;;;7391771;19;20920;-74
2023/08/06 03:01:42;;;;;;;2.55;1.60;;;17.30;99.90;;;;;;7392834;19;20137;-75
2023/08/06 03:04:08;;;;;;;1.83;1.20;;;17.30;99.90;;;;;;7390743;19;20201;-74
2023/08/06 03:06:34;;;;;;;3.05;1.52;;;17.40;99.90;;;;;;7391001;19;20960;-74
2023/08/06 03:08:59;;;;;;;2.25;1.52;;;17.40;99.90;;;;;;7391901;19;20139;-73
2023/08/06 03:11:25;;;;;;;1.48;1.38;;;17.30;99.90;;;;;;7391147;19;20169;-75
2023/08/06 03:13:51;;;;;;;2.83;1.75;;;17.30;99.90;;;;;;7390824;19;20620;-74
2023/08/06 03:16:16;;;;;;;1.80;1.48;;;17.20;99.90;;;;;;7391515;19;20146;-74
2023/08/06 03:18:42;;;;;;;1.90;1.55;;;17.40;99.90;;;;;;7389141;19;20823;-74
2023/08/06 03:21:08;;;;;;;2.47;1.25;;;17.50;99.90;;;;;;7391365;19;20145;-74
2023/08/06 03:23:33;;;;;;;1.52;1.42;;;17.60;99.90;;;;;;7391521;19;20134;-75
2023/08/06 03:26:03;;;;;;;1.88;1.30;;;17.70;99.90;;;;;;7388587;19;20164;-74
2023/08/06 03:28:28;;;;;;;1.88;1.52;;;17.60;99.90;;;;;;7391840;19;20138;-75
2023/08/06 03:31:04;;;;;;;2.38;1.60;;;17.70;99.90;;;;;;7390157;19;20138;-74
2023/08/06 03:33:30;;;;;;;1.60;1.33;;;17.70;99.90;;;;;;7392097;19;20206;-75
2023/08/06 03:35:56;;;;;;;2.63;1.60;;;17.60;99.90;;;;;;7392406;19;20462;-75
2023/08/06 03:38:22;;;;;;;2.00;1.40;;;17.60;99.90;;;;;;7389591;19;20198;-74
2023/08/06 03:40:49;;;;;;;1.65;1.25;;;17.60;99.90;;;;;;7390075;19;20139;-74
2023/08/06 03:43:15;;;;;;;2.65;1.30;;;17.60;99.90;;;;;;7389386;19;20716;-74
2023/08/06 03:45:42;;;;;;;2.08;1.10;;;17.60;99.90;;;;;;7391765;19;20608;-74
2023/08/06 03:48:09;;;;;;;1.95;1.73;;;17.60;99.90;;;;;;7390742;19;20603;-73
2023/08/06 03:50:35;;;;;;;1.98;1.20;;;17.70;99.90;;;;;;7391295;19;20130;-73
2023/08/06 03:53:01;;;;;;;2.08;1.40;;;17.70;99.90;;;;;;7390631;19;20579;-74
2023/08/06 03:55:27;;;;;;;1.83;1.30;;;17.70;99.90;;;;;;7391364;19;20127;-74
2023/08/06 03:57:53;;;;;;;1.70;1.42;;;17.60;99.90;;;;;;7387747;19;20137;-75
2023/08/06 04:00:19;;;;;;;2.25;1.15;;;17.60;99.90;;;;;;7390364;19;20502;-75
2023/08/06 04:02:44;;;;;;;1.73;1.33;;;17.70;99.90;;;;;;7390133;19;20565;-75
2023/08/06 04:05:10;;;;;;;1.45;1.15;;;17.70;99.90;;;;;;7390240;19;20166;-74
2023/08/06 04:07:36;;;;;;;2.08;1.23;;;17.70;99.90;;;;;;7391392;19;20135;-73
2023/08/06 04:10:04;;;;;;;2.28;1.65;;;17.70;99.90;;;;;;7389646;19;20131;-75
2023/08/06 04:12:30;;;;;;;2.10;1.27;;;17.70;99.90;;;;;;7389861;19;20145;-74
2023/08/06 04:14:57;;;;;;;4.88;1.40;;;17.80;99.90;;;;;;7388880;19;20135;-74
2023/08/06 04:17:23;;;;;;;2.17;1.40;;;17.60;99.90;;;;;;7388057;19;20643;-73
2023/08/06 04:19:51;;;;;;;1.67;1.38;;;17.70;99.90;;;;;;7389282;19;20148;-73
2023/08/06 04:22:19;;;;;;;2.25;1.60;;;17.70;99.90;;;;;;7389477;19;20142;-74
2023/08/06 04:24:45;;;;;;;4.50;1.67;;;17.60;99.90;;;;;;7391538;19;20256;-75
2023/08/06 04:27:11;;;;;;;2.25;1.60;;;17.60;99.90;;;;;;7392197;19;20155;-74
2023/08/06 04:29:37;;;;;;;2.25;1.52;;;17.60;99.90;;;;;;7390937;19;20127;-73
2023/08/06 04:32:08;;;;;;;2.33;1.70;;;17.70;99.90;;;;;;7389025;19;20143;-73
2023/08/06 04:34:35;;;;;;;2.97;1.70;;;17.50;99.90;;;;;;7389362;19;20218;-74
2023/08/06 04:37:01;;;;;;;2.17;1.77;;;17.40;99.90;;;;;;7390466;19;20202;-74
2023/08/06 04:39:27;;;;;;;2.20;1.38;;;17.30;99.90;;;;;;7390959;19;20314;-74
2023/08/06 04:41:53;;;;;;;2.03;1.50;;;17.30;99.90;;;;;;7390167;19;20486;-73
2023/08/06 04:44:20;;;;;;;1.77;1.40;;;17.20;99.90;;;;;;7390871;19;20126;-74
2023/08/06 04:46:46;;;;;;;3.90;1.67;;;16.90;99.90;;;;;;7390123;19;20148;-73
2023/08/06 04:49:11;;;;;;;1.70;1.60;;;17.20;99.90;;;;;;7389001;19;20214;-73
2023/08/06 04:51:37;;;;;;;2.85;1.73;;;17.30;99.90;;;;;;7388879;19;20257;-74
2023/08/06 04:54:03;;;;;;;1.95;1.70;;;17.50;99.90;;;;;;7389184;19;20166;-76
2023/08/06 04:56:29;;;;;;;2.17;1.50;;;17.40;99.90;;;;;;7389888;19;20551;-74
2023/08/06 04:58:55;;;;;;;2.40;1.63;;;17.50;99.90;;;;;;7390482;19;20134;-74
2023/08/06 05:01:20;;;;;;;2.08;1.60;;;17.60;99.90;;;;;;7387624;19;20139;-74
2023/08/06 05:03:47;;;;;;;4.03;1.45;;;17.60;99.90;;;;;;7388726;19;20161;-74
2023/08/06 05:06:13;;;;;;;2.28;1.50;;;17.60;99.90;;;;;;7388608;19;20138;-74
2023/08/06 05:08:39;;;;;;;2.05;1.52;;;17.60;99.90;;;;;;7389347;19;20471;-74
2023/08/06 05:11:04;;;;;;;2.20;1.17;;;17.60;99.90;;;;;;7389577;19;20130;-74
2023/08/06 05:13:30;;;;;;;2.35;1.50;;;17.70;99.90;;;;;;7390004;19;20659;-73
2023/08/06 05:15:56;;;;;;;2.38;1.20;;;17.70;99.90;;;;;;7393523;19;20642;-74
2023/08/06 05:18:22;;;;;;;1.50;1.00;;;17.70;99.90;;;;;;7394382;19;20603;-74
2023/08/06 05:20:48;;;;;;;1.38;1.00;;;17.80;99.90;;;;;;7396382;19;20148;-75
2023/08/06 05:23:13;;;;;;;1.48;1.00;;;17.80;99.90;;;;;;7396224;19;20257;-75
2023/08/06 05:25:39;;;;;;;1.67;0.85;;;17.60;99.90;;;;;;7395345;19;20186;-75
2023/08/06 05:28:05;;;;;;;2.58;1.00;;;17.50;99.90;;;;;;7395333;19;20139;-75
2023/08/06 05:30:31;;;;;;;3.17;0.85;;;17.60;99.90;;;;;;7394274;19;20171;-75
2023/08/06 05:32:57;;;;;;;1.48;0.82;;;17.80;99.90;;;;;;7394550;19;20142;-75
2023/08/06 05:35:23;;;;;;;1.30;0.95;;;17.60;99.90;;;;;;7396612;19;20139;-75
2023/08/06 05:37:53;;;;;;;2.92;1.00;;;17.60;99.90;;;;;;7393128;19;20157;-74
2023/08/06 05:40:19;;;;;;;0.70;0.63;;;17.60;99.90;;;;;;7394558;19;20214;-73
2023/08/06 05:42:44;;;;;;;0.95;0.77;;;17.80;99.90;;;;;;7396419;19;20859;-74
2023/08/06 05:45:10;;;;;;;1.40;0.80;;;17.80;99.90;;;;;;7394123;19;20138;-74
2023/08/06 05:47:36;;;;;;;2.38;1.10;;;18.00;99.90;;;;;;7395605;19;20583;-74
2023/08/06 05:50:01;;;;;;;2.90;0.93;;;18.10;99.90;;;;;;7391768;19;20151;-74
2023/08/06 05:52:27;;;;;;;1.02;0.73;;;18.10;99.90;;;;;;7395091;19;20147;-74
2023/08/06 05:54:54;;;;;;;1.48;0.80;;;17.80;99.90;;;;;;7393703;19;20139;-75
2023/08/06 05:57:20;;;;;;;2.20;1.10;;;17.70;99.90;;;;;;7395025;19;20570;-76
2023/08/06 05:59:46;;;;;;;1.63;1.00;;;17.70;99.90;;;;;;7393655;19;20149;-74
2023/08/06 06:02:12;;;;;;;1.50;0.70;;;17.80;99.90;;;;;;7394854;19;20146;-74
2023/08/06 06:04:37;;;;;;;1.25;0.93;;;17.90;99.90;;;;;;7391455;19;20523;-74
2023/08/06 06:07:03;;;;;;;0.95;0.60;;;17.80;99.90;;;;;;7394145;19;20134;-75
2023/08/06 06:09:29;;;;;;;1.60;0.60;;;17.60;99.90;;;;;;7389663;19;20241;-74
2023/08/06 06:11:55;;;;;;;0.88;0.57;;;17.60;99.90;;;;;;7393553;19;20179;-74
2023/08/06 06:14:20;;;;;;;2.25;0.70;;;17.60;99.90;;;;;;7392747;19;20762;-74
2023/08/06 06:16:46;;;;;;;2.83;0.45;;;17.60;99.90;;;;;;7393059;19;20147;-73
2023/08/06 06:19:12;;;;;;;1.67;0.70;;;17.60;99.90;;;;;;7394319;19;20148;-74
2023/08/06 06:21:38;;;;;;;1.40;0.50;;;17.40;99.90;;;;;;7395075;19;20153;-74
2023/08/06 06:24:05;;;;;;;2.50;0.60;;;17.50;99.90;;;;;;7393882;19;20134;-74
2023/08/06 06:26:32;;;;;;;0.82;0.50;;;17.50;99.90;;;;;;7391122;19;20583;-74
2023/08/06 06:28:58;;;;;;;1.23;0.50;;;17.60;99.90;;;;;;7391529;19;20159;-74
2023/08/06 06:31:24;;;;;;;1.20;0.52;;;17.70;99.90;;;;;;7394809;19;20480;-74
2023/08/06 06:33:49;;;;;;;0.77;0.50;;;17.60;99.90;;;;;;7394673;19;20571;-75
2023/08/06 06:36:15;;;;;;;1.50;0.60;;;17.40;99.90;;;;;;7394787;19;20263;-73
2023/08/06 06:38:41;;;;;;;0.52;0.43;;;17.30;99.90;;;;;;7389779;19;20139;-73
2023/08/06 06:41:07;;;;;;;0.93;0.60;;;17.50;99.90;;;;;;7394523;19;20145;-74
2023/08/06 06:43:33;;;;;;;1.92;0.50;;;17.60;99.90;;;;;;7392336;19;20720;-74
2023/08/06 06:46:00;;;;;;;0.60;0.50;;;17.70;99.90;;;;;;7393979;19;20134;-75
2023/08/06 06:48:27;;;;;;;1.02;0.50;;;17.80;99.90;;;;;;7393049;19;20153;-74
2023/08/06 06:50:53;;;;;;;1.27;0.60;;;17.90;99.90;;;;;;7393538;19;20198;-74
2023/08/06 06:53:19;;;;;;;1.05;0.50;;;17.90;99.90;;;;;;7392842;19;20143;-75
2023/08/06 06:55:45;;;;;;;0.60;0.40;;;17.90;99.90;;;;;;7394506;19;20135;-75
2023/08/06 06:58:10;;;;;;;0.95;0.52;;;18.20;99.90;;;;;;7390988;19;21246;-74
2023/08/06 07:00:37;;;;;;;1.20;0.80;;;18.30;99.90;;;;;;7394770;19;20138;-76
2023/08/06 07:03:03;;;;;;;0.60;0.47;;;18.30;99.90;;;;;;7392428;19;20663;-75
2023/08/06 07:05:29;;;;;;;0.90;0.50;;;18.10;99.90;;;;;;7393485;19;20472;-76
2023/08/06 07:07:57;;;;;;;0.90;0.57;;;18.10;99.90;;;;;;7393641;19;20137;-76
2023/08/06 07:10:23;;;;;;;1.65;0.63;;;17.90;99.90;;;;;;7392298;19;20583;-76
2023/08/06 07:12:52;;;;;;;1.65;0.50;;;17.90;99.90;;;;;;7392124;19;20216;-76
2023/08/06 07:15:17;;;;;;;1.17;0.63;;;18.00;99.90;;;;;;7394916;19;20135;-75
2023/08/06 07:17:43;;;;;;;1.38;0.45;;;17.90;99.90;;;;;;7392209;19;20141;-76
2023/08/06 07:20:10;;;;;;;0.52;0.45;;;17.70;99.90;;;;;;7392173;19;20138;-76
2023/08/06 07:22:35;;;;;;;0.50;0.43;;;17.70;99.90;;;;;;7393093;19;20138;-75
2023/08/06 07:25:02;;;;;;;1.23;0.50;;;17.70;99.90;;;;;;7393701;19;20148;-76
2023/08/06 07:27:27;;;;;;;3.75;0.60;;;17.40;99.90;;;;;;7394626;19;20141;-76
2023/08/06 07:29:53;;;;;;;0.50;0.40;;;17.30;99.90;;;;;;7395254;19;20611;-78
2023/08/06 07:32:19;;;;;;;0.70;0.50;;;17.40;99.90;;;;;;7393144;19;20146;-80
2023/08/06 07:34:45;;;;;;;0.47;0.40;;;17.30;99.90;;;;;;7394065;19;20137;-80
2023/08/06 07:37:11;;;;;;;0.40;0.40;;;17.20;99.90;;;;;;7393174;19;20634;-81
2023/08/06 07:39:39;;;;;;;1.60;0.70;;;17.30;99.90;;;;;;7394687;19;20380;-80
2023/08/06 07:42:06;;;;;;;1.10;0.40;;;17.30;99.90;;;;;;7394331;19;20163;-81
2023/08/06 07:44:32;;;;;;;1.05;0.50;;;17.30;99.90;;;;;;7394201;19;20156;-80
2023/08/06 07:46:58;;;;;;;0.93;0.52;;;17.30;99.90;;;;;;7394980;19;20753;-80
2023/08/06 07:49:24;;;;;;;1.75;0.47;;;18.90;99.90;;;;;;7394137;19;20126;-81
2023/08/06 07:51:51;;;;;;;1.98;0.73;;;17.40;99.90;;;;;;7393993;19;20140;-80
2023/08/06 07:54:17;;;;;;;0.45;0.45;;;17.50;99.90;;;;;;7392916;19;20150;-80
2023/08/06 07:56:43;;;;;;;0.70;0.55;;;17.50;99.90;;;;;;7394878;19;20492;-82
2023/08/06 07:59:12;;;;;;;1.00;0.32;;;17.60;99.90;;;;;;7391230;19;20142;-80
2023/08/06 08:01:38;;;;;;;0.20;0.20;;;17.50;99.90;;;;;;7384522;19;20134;-79
2023/08/06 08:04:04;;;;;;;0.50;0.50;;;17.70;99.90;;;;;;7389838;19;20649;-80
2023/08/06 08:06:30;;;;;;;0.30;0.30;;;17.80;99.90;;;;;;7392834;19;20165;-81
2023/08/06 08:08:56;;;;;;;0.30;0.30;;;17.90;99.90;;;;;;7391875;19;20130;-80
2023/08/06 08:11:21;;;;;;;0.30;0.30;;;18.10;99.90;;;;;;7391772;19;20575;-79
2023/08/06 08:13:47;;;;;;;0.90;0.38;;;18.10;99.90;;;;;;7390686;19;20123;-78
2023/08/06 08:16:13;;;;;;;0.32;0.22;;;18.10;99.90;;;;;;7392104;19;20143;-78
2023/08/06 08:18:39;;;;;;;0.43;0.40;;;18.30;99.90;;;;;;7391688;19;20130;-77
2023/08/06 08:21:04;;;;;;;1.30;0.30;;;18.30;99.90;;;;;;7394076;19;20167;-77
2023/08/06 08:23:31;;;;;;;0.28;0.20;;;18.40;99.90;;;;;;7391259;19;20130;-76
2023/08/06 08:25:57;;;;;;;0.25;0.25;;;18.40;99.90;;;;;;7393889;19;20134;-79
2023/08/06 08:28:22;;;;;;;0.20;0.20;;;18.50;99.90;;;;;;7390979;19;20147;-79
2023/08/06 08:30:48;;;;;;;0.13;0.13;;;18.60;99.90;;;;;;7393037;19;20143;-77
2023/08/06 08:33:14;;;;;;;0.20;0.20;;;18.90;99.90;;;;;;7392142;19;20151;-77
2023/08/06 08:35:40;;;;;;;1.02;0.20;;;19.50;99.90;;;;;;7391741;19;20126;-77
2023/08/06 08:38:06;;;;;;;0.20;0.10;;;19.80;99.90;;;;;;7390727;19;20131;-78
2023/08/06 08:40:33;;;;;;;0.20;0.20;;;19.70;99.90;;;;;;7391431;19;20210;-77
2023/08/06 08:42:59;;;;;;;0.40;0.30;;;19.70;99.90;;;;;;7392468;19;20313;-79
2023/08/06 08:45:28;;;;;;;0.60;0.30;;;19.50;99.90;;;;;;7390642;19;20143;-78
2023/08/06 08:47:54;;;;;;;0.43;0.28;;;19.60;99.90;;;;;;7392572;19;20494;-74
2023/08/06 08:50:21;;;;;;;0.47;0.20;;;19.30;99.90;;;;;;7390750;19;20134;-79
2023/08/06 08:52:50;;;;;;;0.17;0.17;;;19.20;99.90;;;;;;7392263;19;20157;-81
2023/08/06 08:55:16;;;;;;;0.20;0.20;;;19.30;99.90;;;;;;7391911;19;20629;-79
2023/08/06 08:57:43;;;;;;;0.20;0.20;;;19.10;99.90;;;;;;7391660;19;20134;-80
2023/08/06 09:00:09;;;;;;;0.43;0.30;;;18.80;99.90;;;;;;7390691;19;20767;-80
2023/08/06 09:02:37;;;;;;;0.30;0.30;;;18.60;99.90;;;;;;7392414;19;20168;-79
2023/08/06 09:05:05;;;;;;;0.47;0.38;;;18.60;99.90;;;;;;7391439;19;20134;-81
2023/08/06 09:07:44;;;;;;;0.10;0.10;;;18.60;99.90;;;;;;7392786;19;20130;-81
2023/08/06 09:10:13;;;;;;;0.30;0.20;;;18.40;99.90;;;;;;7390911;19;20131;-79
2023/08/06 09:12:39;;;;;;;0.22;0.22;;;18.30;99.90;;;;;;7391400;19;20143;-80
2023/08/06 09:15:06;;;;;;;0.20;0.20;;;19.90;99.90;;;;;;7391360;19;20439;-80
2023/08/06 09:17:31;;;;;;;0.10;0.10;;;18.30;99.90;;;;;;7389359;19;20138;-79
2023/08/06 09:19:57;;;;;;;1.40;0.22;;;18.40;99.90;;;;;;7394205;19;20451;-80
2023/08/06 09:22:23;;;;;;;0.20;0.20;;;18.30;99.90;;;;;;7389455;19;20127;-80
2023/08/06 09:24:49;;;;;;;0.30;0.30;;;18.40;99.90;;;;;;7391779;19;20619;-79
2023/08/06 09:27:16;;;;;;;0.13;0.13;;;18.50;99.90;;;;;;7388916;19;20150;-81
2023/08/06 09:29:44;;;;;;;0.30;0.30;;;18.70;99.90;;;;;;7390367;19;20138;-80
2023/08/06 09:32:14;;;;;;;0.47;0.28;;;18.70;99.90;;;;;;7390854;19;20500;-81
2023/08/06 09:34:42;;;;;;;0.30;0.30;;;18.90;99.90;;;;;;7392457;19;20159;-79
2023/08/06 09:37:10;;;;;;;1.85;0.30;;;19.10;99.90;;;;;;7389700;19;20225;-81
2023/08/06 09:39:37;;;;;;;1.40;0.20;;;18.90;99.90;;;;;;7389420;19;20505;-80
2023/08/06 09:42:04;;;;;;;0.63;0.30;;;19.00;99.90;;;;;;7392679;19;20609;-79
2023/08/06 09:44:32;;;;;;;0.45;0.30;;;18.90;99.90;;;;;;7392142;19;20135;-81
2023/08/06 09:47:00;;;;;;;1.55;0.15;;;18.80;99.90;;;;;;7389227;19;20143;-79
2023/08/06 09:49:28;;;;;;;0.40;0.30;;;18.70;99.90;;;;;;7387615;19;20143;-81
2023/08/06 09:51:59;;;;;;;0.30;0.30;;;18.70;99.90;;;;;;7386990;19;20154;-79
2023/08/06 09:54:26;;;;;;;0.43;0.30;;;18.50;99.90;;;;;;7386520;19;20152;-78
2023/08/06 09:56:56;;;;;;;0.30;0.25;;;18.50;99.90;;;;;;7386866;19;20150;-80
2023/08/06 09:59:23;;;;;;;0.63;0.40;;;18.60;99.90;;;;;;7388608;19;20142;-79
2023/08/06 10:01:49;;;;;;;0.30;0.20;;;18.40;99.90;;;;;;7393541;19;20586;-78
2023/08/06 10:04:18;;;;;;;0.30;0.30;;;18.50;99.90;;;;;;7394413;19;20153;-78
2023/08/06 10:06:48;;;;;;;0.28;0.28;;;18.60;99.90;;;;;;7396419;19;20134;-80
2023/08/06 10:09:14;;;;;;;0.70;0.30;;;18.50;99.90;;;;;;7394508;19;20242;-78
2023/08/06 10:11:42;;;;;;;0.10;0.10;;;18.30;99.90;;;;;;7396875;19;20138;-79
2023/08/06 10:14:12;;;;;;;1.05;0.73;;;18.30;99.90;;;;;;7394546;19;20134;-80
2023/08/06 10:16:40;;;;;;;0.30;0.30;;;18.40;99.90;;;;;;7397142;19;20533;-80
2023/08/06 10:19:10;;;;;;;0.77;0.50;;;18.40;99.90;;;;;;7393765;19;20135;-80
2023/08/06 10:21:38;;;;;;;0.20;0.20;;;18.40;99.90;;;;;;7396239;19;20138;-80
2023/08/06 10:24:09;;;;;;;0.20;0.20;;;18.30;99.90;;;;;;7395324;19;20158;-80
2023/08/06 10:26:35;;;;;;;0.10;0.10;;;18.40;99.90;;;;;;7397577;19;20138;-81
2023/08/06 10:29:01;;;;;;;0.20;0.20;;;18.60;99.90;;;;;;7395382;19;20182;-80
2023/08/06 10:32:00;;;;;;;0.20;0.20;;;17.90;99.90;;;;;;7395898;19;20146;-81
2023/08/06 10:34:45;;;;;;;0.77;0.60;;;17.90;99.90;;;;;;7393345;19;20210;-80
2023/08/06 10:37:11;;;;;;;0.20;0.20;;;17.70;99.90;;;;;;7395716;19;20138;-81
2023/08/06 10:39:47;;;;;;;0.20;0.20;;;17.60;99.90;;;;;;7394517;19;20206;-81
2023/08/06 10:42:27;;;;;;;0.20;0.20;;;17.60;99.90;;;;;;7396214;19;20442;-80
2023/08/06 10:45:15;;;;;;;0.35;0.30;;;18.00;99.90;;;;;;7396024;19;20155;-81
2023/08/06 10:47:45;;;;;;;0.63;0.40;;;18.80;99.90;;;;;;7395311;19;20158;-81
2023/08/06 10:50:13;;;;;;;2.58;0.35;;;18.10;99.90;;;;;;7394419;19;20169;-81
2023/08/06 10:52:40;;;;;;;0.60;0.43;;;18.10;99.90;;;;;;7393460;19;20135;-76
2023/08/06 10:55:06;;;;;;;0.40;0.40;;;18.10;99.90;;;;;;7392661;19;20155;-76
2023/08/06 10:57:32;;;;;;;0.32;0.30;;;18.20;99.90;;;;;;7392142;19;20147;-75
2023/08/06 10:59:58;;;;;;;0.30;0.30;;;18.70;99.90;;;;;;7391201;19;20142;-77
2023/08/06 11:02:23;;;;;;;0.40;0.40;;;18.20;99.90;;;;;;7389839;19;20156;-76
2023/08/06 11:04:50;;;;;;;0.73;0.40;;;18.20;99.90;;;;;;7390736;19;20170;-76
2023/08/06 11:07:16;;;;;;;0.47;0.40;;;18.20;99.90;;;;;;7390026;19;20469;-77
2023/08/06 11:09:42;;;;;;;0.10;0.10;;;18.20;99.90;;;;;;7392942;19;20130;-76
2023/08/06 11:12:11;;;;;;;0.30;0.30;;;18.10;99.90;;;;;;7390715;19;20161;-75
2023/08/06 11:14:38;;;;;;;0.28;0.28;;;18.00;99.90;;;;;;7391666;19;20135;-77
2023/08/06 11:17:05;;;;;;;0.40;0.38;;;18.10;99.90;;;;;;7391179;19;20139;-77
2023/08/06 11:19:31;;;;;;;0.88;0.40;;;18.10;99.90;;;;;;7392302;19;20231;-76
2023/08/06 11:21:58;;;;;;;0.70;0.60;;;18.10;99.90;;;;;;7391041;19;20142;-76
2023/08/06 11:24:24;;;;;;;1.20;0.73;;;18.20;99.90;;;;;;7391314;19;20492;-74
2023/08/06 11:26:50;;;;;;;1.20;0.80;;;18.30;99.90;;;;;;7391722;19;20150;-75
2023/08/06 11:29:16;;;;;;;0.50;0.30;;;18.30;99.90;;;;;;7390385;19;20146;-77
2023/08/06 11:31:42;;;;;;;0.52;0.40;;;18.10;99.90;;;;;;7393141;19;20264;-77
2023/08/06 11:34:09;;;;;;;1.48;0.68;;;18.10;99.90;;;;;;7392474;19;20135;-77
2023/08/06 11:36:41;;;;;;;0.50;0.40;;;18.10;99.90;;;;;;7390312;19;20644;-75
2023/08/06 11:39:07;;;;;;;0.55;0.55;;;18.10;99.90;;;;;;7391239;19;20551;-75
2023/08/06 11:41:33;;;;;;;0.52;0.45;;;17.90;99.90;;;;;;7390538;19;20142;-76
2023/08/06 11:43:59;;;;;;;0.57;0.57;;;17.80;99.90;;;;;;7390150;19;20146;-76
2023/08/06 11:46:25;;;;;;;0.77;0.55;;;17.90;99.90;;;;;;7391240;19;20134;-76
2023/08/06 11:48:58;;;;;;;0.60;0.50;;;17.90;99.90;;;;;;7388108;19;20145;-77
2023/08/06 11:51:27;;;;;;;0.82;0.60;;;18.10;99.90;;;;;;7392275;19;20135;-75
2023/08/06 11:53:57;;;;;;;1.00;0.65;;;18.20;99.90;;;;;;7390649;19;20173;-76
2023/08/06 11:56:27;;;;;;;1.80;0.70;;;18.10;99.90;;;;;;7390630;19;20147;-75
2023/08/06 11:58:54;;;;;;;1.00;0.70;;;18.10;99.90;;;;;;7389697;19;20213;-76
2023/08/06 12:01:20;;;;;;;0.77;0.60;;;18.00;99.90;;;;;;7390374;19;20131;-76
2023/08/06 12:03:46;;;;;;;0.95;0.60;;;18.00;99.90;;;;;;7391011;19;20164;-77
2023/08/06 12:06:12;;;;;;;1.70;0.95;;;17.80;99.90;;;;;;7392077;19;20697;-76
2023/08/06 12:08:38;;;;;;;1.05;0.60;;;17.30;99.90;;;;;;7387435;19;20130;-77
2023/08/06 12:11:04;;;;;;;1.08;0.75;;;17.40;99.90;;;;;;7393138;19;20135;-76
2023/08/06 12:13:29;;;;;;;1.25;0.60;;;17.40;99.90;;;;;;7389719;19;20562;-75
2023/08/06 12:15:57;;;;;;;1.88;0.70;;;17.50;99.90;;;;;;7389003;19;20232;-75
2023/08/06 12:18:23;;;;;;;1.08;0.80;;;17.30;99.90;;;;;;7391678;19;20161;-75
2023/08/06 12:20:49;;;;;;;1.38;0.93;;;17.40;99.90;;;;;;7389251;19;20226;-75
2023/08/06 12:23:15;;;;;;;1.10;0.77;;;17.40;99.90;;;;;;7389859;19;20142;-75
2023/08/06 12:25:42;;;;;;;2.83;1.10;;;17.40;99.90;;;;;;7387815;19;20469;-75
2023/08/06 12:28:09;;;;;;;0.60;0.60;;;17.40;99.90;;;;;;7385509;19;20253;-76
2023/08/06 12:30:35;;;;;;;2.88;1.88;;;17.30;99.90;;;;;;7390041;19;20149;-74
2023/08/06 12:33:00;;;;;;;1.48;0.85;;;17.40;99.90;;;;;;7388494;19;20225;-75
2023/08/06 12:35:26;;;;;;;1.23;0.88;;;17.70;99.90;;;;;;7391904;19;20160;-74
2023/08/06 12:37:54;;;;;;;1.38;0.80;;;17.60;99.90;;;;;;7384356;19;20134;-75
2023/08/06 12:40:21;;;;;;;0.90;0.60;;;17.70;99.90;;;;;;7387210;19;20146;-75
2023/08/06 12:42:47;;;;;;;1.20;1.10;;;17.80;99.90;;;;;;7389159;19;20140;-75
2023/08/06 12:45:14;;;;;;;1.13;0.77;;;17.90;99.90;;;;;;7389207;19;20134;-75